Latest Weather Observations for Parafield

IDS60801

Issued at 9:02 am CDT Sunday 21 December 2014 (issued every 30 minutes, with the page automatically refreshed every 10 minutes)

About weather observations | Map of weather stations | Latest weather observations for SA | Other Formats
Station Details ID: 023013 Name: PARAFIELD AIRPORT Lat: -34.80 Lon: 138.63 Height: 9.5 m
Data from the previous 72 hours. | See also: Recent months at Parafield
Date/Time
CDT
Temp
°C
App
Temp
°C
Dew
Point
Rel
Hum
%
Delta-T
°C
Wind Press
QNH
hPa
Press
MSL
hPa
Rain
since 9 am
mm
Dir
 
Spd
km/h
Gust
km/h
Spd
kts
Gust
kts
21/09:00am 31.1 25.4 4.8 19 13.7 NNE 24 33 13 18 1011.3 1011.3 0.0
21/08:30am 30.0 24.2 4.6 20 13.1 NNE 24 33 13 18 1011.4 1011.4 0.0
21/08:00am 28.6 25.5 5.5 23 12.0 NE 11 20 6 11 1011.3 1011.3 0.0
21/07:54am 26.7 25.5 8.2 31 10.0 NE 4 9 2 5 1011.3 1011.3 0.0
21/07:30am 21.6 21.9 11.0 51 5.8 CALM 0 0 0 0 1011.2 1011.2 0.0
21/07:00am 18.7 19.3 11.8 64 3.8 CALM 0 0 0 0 1011.1 1011.1 0.0
21/06:30am 15.8 16.0 10.6 71 2.8 CALM 0 0 0 0 1011.0 1011.0 0.0
21/06:00am 15.6 15.8 10.6 72 2.6 CALM 0 0 0 0 1011.0 1011.0 0.0
21/05:30am 16.1 16.3 10.6 70 2.9 CALM 0 0 0 0 1010.9 1010.9 0.0
21/05:00am 16.8 17.2 11.3 70 3.0 CALM 0 0 0 0 1010.9 1010.9 0.0
21/04:30am 16.9 17.0 11.4 70 3.0 SSW 2 7 1 4 1011.0 1011.0 0.0
21/04:00am 16.7 15.6 10.5 67 3.3 W 7 13 4 7 1011.1 1011.1 0.0
21/03:30am 16.9 14.6 9.1 60 4.0 W 11 13 6 7 1010.9 1010.9 0.0
21/03:00am 19.2 17.2 8.8 51 5.4 ENE 9 11 5 6 1011.0 1011.0 0.0
21/02:30am 18.6 18.4 9.1 54 5.0 CALM 0 6 0 3 1011.7 1011.7 0.0
21/02:00am 20.1 17.9 9.4 50 5.7 WNW 11 15 6 8 1012.0 1012.0 0.0
21/01:30am 20.8 19.5 9.1 47 6.2 WNW 6 11 3 6 1011.6 1011.6 0.0
21/01:00am 22.0 19.4 9.5 45 6.7 E 13 19 7 10 1011.9 1011.9 0.0
21/12:30am 22.1 19.6 9.6 45 6.7 E 13 20 7 11 1012.2 1012.2 0.0
21/12:00am 22.4 18.6 9.9 45 6.8 E 20 28 11 15 1012.2 1012.2 0.0
 
Date/Time
CDT
Temp
°C
App
Temp
°C
Dew
Point
Rel
Hum
%
Delta-T
°C
Wind Press
QNH
hPa
Press
MSL
hPa
Rain
since 9 am
mm
Dir
 
Spd
km/h
Gust
km/h
Spd
kts
Gust
kts
20/11:30pm 22.9 19.1 9.7 43 7.2 E 20 30 11 16 1012.5 1012.5 0.0
20/11:00pm 23.3 19.6 10.0 43 7.3 E 20 28 11 15 1012.8 1012.8 0.0
20/10:30pm 23.2 21.2 10.3 44 7.1 ENE 11 17 6 9 1013.3 1013.3 0.0
20/10:00pm 23.8 21.9 10.5 43 7.4 ESE 11 20 6 11 1013.5 1013.5 0.0
20/09:30pm 23.3 22.2 10.0 43 7.3 NE 6 9 3 5 1013.6 1013.6 0.0
20/09:00pm 24.4 22.4 10.3 41 7.8 E 11 15 6 8 1013.6 1013.6 0.0
20/08:30pm 25.6 23.5 9.8 37 8.7 SE 11 17 6 9 1013.4 1013.4 0.0
20/08:00pm 27.4 25.3 6.8 27 10.9 SSE 7 11 4 6 1012.9 1012.9 0.0
20/07:30pm 28.3 25.9 7.0 26 11.4 S 9 11 5 6 1012.9 1012.9 0.0
20/07:00pm 28.3 26.0 7.5 27 11.2 SSW 9 17 5 9 1013.0 1013.0 0.0
20/06:30pm 28.6 25.9 7.2 26 11.5 SW 11 15 6 8 1013.0 1013.0 0.0
20/06:00pm 28.6 25.2 7.8 27 11.3 SW 15 19 8 10 1013.2 1013.2 0.0
20/05:30pm 28.5 24.5 8.2 28 11.1 W 19 24 10 13 1013.4 1013.4 0.0
20/05:00pm 27.7 23.5 8.1 29 10.6 W 20 28 11 15 1013.6 1013.6 0.0
20/04:30pm 28.8 24.8 9.0 29 10.9 WSW 20 28 11 15 1013.8 1013.8 0.0
20/04:00pm 28.2 22.5 8.5 29 10.8 W 28 35 15 19 1014.0 1014.0 0.0
20/03:30pm 29.3 26.1 8.4 27 11.5 SW 15 26 8 14 1014.2 1014.2 0.0
20/03:00pm 29.4 25.7 7.9 26 11.7 SSW 17 28 9 15 1014.8 1014.8 0.0
20/02:30pm 28.8 26.0 8.5 28 11.1 WSW 13 22 7 12 1015.3 1015.3 0.0
20/02:00pm 27.8 24.5 8.1 29 10.7 SSW 15 24 8 13 1015.8 1015.8 0.0
20/01:30pm 27.2 24.7 8.1 30 10.3 SW 11 20 6 11 1016.4 1016.4 0.0
20/01:00pm 26.6 23.7 8.1 31 10.0 WNW 13 17 7 9 1016.9 1016.9 0.0
20/12:30pm 26.3 23.8 8.3 32 9.7 SW 11 20 6 11 1017.3 1017.3 0.0
20/12:00pm 25.4 23.4 7.1 31 9.6 E 7 13 4 7 1017.6 1017.6 0.0
20/11:30am 24.6 22.7 7.7 34 8.9 SSW 7 13 4 7 1018.2 1018.2 0.0
20/11:00am 23.5 21.6 7.6 36 8.3 SSE 7 11 4 6 1018.5 1018.5 0.0
20/10:30am 22.3 20.6 7.7 39 7.6 W 6 9 3 5 1018.8 1018.8 0.0
20/10:00am 22.1 20.9 7.9 40 7.4 ENE 4 13 2 7 1019.0 1019.0 0.0
20/09:30am 20.7 19.1 8.7 46 6.3 NW 7 13 4 7 1019.4 1019.4 0.0
20/09:00am 20.3 18.8 8.6 47 6.1 E 6 9 3 5 1019.7 1019.7 0.0
20/08:30am 19.0 17.9 8.6 51 5.4 E 4 9 2 5 1019.6 1019.6 0.0
20/08:00am 18.0 16.0 8.8 55 4.8 ESE 9 13 5 7 1019.4 1019.4 0.0
20/07:30am 17.0 15.7 9.2 60 4.0 ESE 6 7 3 4 1019.3 1019.3 0.0
20/07:00am 15.3 13.4 9.2 67 3.1 SE 9 11 5 6 1019.2 1019.2 0.0
20/06:30am 13.4 11.8 8.9 74 2.3 SE 7 11 4 6 1019.1 1019.1 0.0
20/06:00am 13.2 11.6 8.9 75 2.2 ESE 7 11 4 6 1018.9 1018.9 0.0
20/05:30am 12.7 11.7 8.8 77 1.9 WNW 4 6 2 3 1018.6 1018.6 0.0
20/05:00am 12.7 12.0 8.4 75 2.1 NNW 2 7 1 4 1018.3 1018.3 0.0
20/04:30am 13.4 11.4 8.7 73 2.4 E 9 11 5 6 1018.1 1018.1 0.0
20/04:00am 14.3 13.0 9.3 72 2.6 ENE 6 9 3 5 1018.2 1018.2 0.0
20/03:30am 14.0 12.6 8.8 71 2.6 E 6 9 3 5 1018.2 1018.2 0.0
20/03:00am 13.9 12.3 8.7 71 2.6 E 7 11 4 6 1018.4 1018.4 0.0
20/02:30am 14.7 14.2 9.3 70 2.8 NE 2 6 1 3 1018.7 1018.7 0.0
20/02:00am 15.0 13.5 9.1 68 3.0 E 7 9 4 5 1019.0 1019.0 0.0
20/01:30am 14.6 13.1 9.0 69 2.8 SE 7 11 4 6 1019.3 1019.3 0.0
20/01:00am 14.4 12.4 8.8 69 2.8 SE 9 13 5 7 1019.8 1019.8 0.0
20/12:30am 15.1 12.4 9.0 67 3.1 ESE 13 17 7 9 1020.1 1020.1 0.0
20/12:00am 15.1 12.5 9.2 68 3.0 SE 13 19 7 10 1020.3 1020.3 0.0
 
Date/Time
CDT
Temp
°C
App
Temp
°C
Dew
Point
Rel
Hum
%
Delta-T
°C
Wind Press
QNH
hPa
Press
MSL
hPa
Rain
since 9 am
mm
Dir
 
Spd
km/h
Gust
km/h
Spd
kts
Gust
kts
19/11:30pm 15.3 13.3 8.8 65 3.3 SE 9 13 5 7 1020.4 1020.4 0.0
19/11:00pm 15.5 13.5 8.7 64 3.5 SE 9 13 5 7 1020.6 1020.6 0.0
19/10:30pm 16.2 13.1 8.7 61 3.8 SE 15 20 8 11 1020.6 1020.6 0.0
19/10:00pm 16.7 13.2 8.7 59 4.1 SE 17 22 9 12 1020.4 1020.4 0.0
19/09:30pm 17.6 14.1 8.7 56 4.6 SE 17 20 9 11 1020.3 1020.3 0.0
19/09:00pm 18.4 14.2 8.4 52 5.1 SE 20 28 11 15 1019.9 1019.9 0.0
19/08:30pm 19.1 15.4 10.1 56 4.8 SSW 20 28 11 15 1019.5 1019.5 0.0
19/08:00pm 19.5 14.0 10.5 56 4.9 SSW 30 37 16 20 1019.5 1019.5 0.0
19/07:30pm 20.1 14.7 10.8 55 5.1 SSW 30 39 16 21 1019.3 1019.3 0.0
19/07:00pm 20.8 16.1 10.6 52 5.6 SW 26 39 14 21 1019.1 1019.1 0.0
19/06:30pm 21.6 15.9 9.8 47 6.3 SW 30 35 16 19 1019.1 1019.1 0.0
19/06:00pm 22.0 16.4 8.9 43 7.0 SW 28 33 15 18 1018.8 1018.8 0.0
19/05:30pm 22.2 17.2 8.0 40 7.4 SW 24 35 13 19 1018.8 1018.8 0.0
19/05:00pm 22.5 17.5 7.9 39 7.6 SW 24 33 13 18 1018.9 1018.9 0.0
19/04:30pm 22.7 18.3 8.8 41 7.4 SW 22 32 12 17 1019.3 1019.3 0.0
19/04:00pm 22.4 18.1 9.2 43 7.1 WSW 22 33 12 18 1019.5 1019.5 0.0
19/03:30pm 22.5 18.2 9.3 43 7.1 SW 22 35 12 19 1019.6 1019.6 0.0
19/03:00pm 22.0 17.7 9.5 45 6.7 SW 22 30 12 16 1019.9 1019.9 0.0
19/02:30pm 21.4 17.1 9.3 46 6.4 WSW 22 33 12 18 1020.1 1020.1 0.0
19/02:00pm 21.5 17.1 9.1 45 6.6 WSW 22 35 12 19 1020.3 1020.3 0.0
19/01:30pm 22.4 17.6 8.9 42 7.2 W 24 35 13 19 1020.3 1020.3 0.0
19/01:00pm 21.5 17.0 8.4 43 6.9 WSW 22 35 12 19 1020.6 1020.6 0.0
19/12:30pm 21.0 16.4 8.0 43 6.7 W 22 32 12 17 1020.7 1020.7 0.0
19/12:00pm 21.5 16.9 8.1 42 7.0 W 22 35 12 19 1020.5 1020.5 0.0
19/11:30am 21.1 17.8 8.0 43 6.8 SW 15 28 8 15 1020.5 1020.5 0.0
19/11:00am 20.7 17.3 5.9 38 7.4 S 13 20 7 11 1020.6 1020.6 0.0
19/10:30am 19.9 17.3 6.3 41 6.8 SSW 9 20 5 11 1020.5 1020.5 0.0
19/10:00am 19.6 15.8 6.0 41 6.7 SW 15 20 8 11 1020.6 1020.6 0.0
19/09:30am 19.1 15.8 6.2 43 6.4 SW 13 20 7 11 1020.6 1020.6 0.0
19/09:00am 17.9 14.5 5.8 45 5.9 SSW 13 20 7 11 1020.4 1020.4 0.8
19/08:30am 17.4 13.8 6.9 50 5.2 S 15 20 8 11 1020.1 1020.1 0.8
19/08:00am 16.9 15.4 7.0 52 4.9 S 4 9 2 5 1019.8 1019.8 0.8
19/07:30am 15.2 14.6 7.2 59 3.9 CALM 0 0 0 0 1019.5 1019.5 0.8
19/07:00am 13.0 11.3 7.7 70 2.6 SE 6 7 3 4 1019.0 1019.0 0.8
19/06:30am 10.6 9.0 6.2 74 2.0 SSE 4 9 2 5 1018.7 1018.7 0.8
19/06:00am 11.1 9.6 6.6 74 2.1 SE 4 7 2 4 1018.4 1018.4 0.8
19/05:30am 11.3 10.5 6.6 73 2.2 CALM 0 4 0 2 1018.3 1018.3 0.8
19/05:00am 12.0 11.2 6.7 70 2.5 CALM 0 0 0 0 1018.2 1018.2 0.8
19/04:30am 11.3 10.5 6.6 73 2.2 CALM 0 0 0 0 1017.9 1017.9 0.8
19/04:00am 11.4 10.6 6.5 72 2.3 CALM 0 0 0 0 1017.9 1017.9 0.8
19/03:30am 11.5 9.3 6.0 69 2.6 SE 7 9 4 5 1017.8 1017.8 0.8
19/03:00am 12.4 10.4 6.9 69 2.6 SE 7 9 4 5 1017.9 1017.9 0.8
19/02:30am 11.8 10.0 7.3 74 2.2 SSE 6 7 3 4 1018.1 1018.1 0.8
19/02:00am 12.2 10.8 7.1 71 2.5 SSE 4 7 2 4 1018.1 1018.1 0.8
19/01:30am 12.9 11.2 7.6 70 2.6 SSE 6 7 3 4 1018.0 1018.0 0.8
19/01:00am 12.7 10.3 7.2 69 2.7 SSE 9 13 5 7 1018.1 1018.1 0.8
19/12:30am 13.0 9.8 7.0 67 2.9 S 13 15 7 8 1018.1 1018.1 0.8
19/12:00am 13.7 10.9 6.8 63 3.3 S 11 17 6 9 1018.0 1018.0 0.8
 
Date/Time
CDT
Temp
°C
App
Temp
°C
Dew
Point
Rel
Hum
%
Delta-T
°C
Wind Press
QNH
hPa
Press
MSL
hPa
Rain
since 9 am
mm
Dir
 
Spd
km/h
Gust
km/h
Spd
kts
Gust
kts
18/11:30pm 14.4 11.1 6.5 59 3.8 S 13 17 7 9 1017.8 1017.8 0.8
18/11:00pm 15.1 11.4 6.1 55 4.3 S 15 20 8 11 1017.5 1017.5 0.8
18/10:30pm 16.2 11.4 5.5 49 5.1 S 20 26 11 14 1017.1 1017.1 0.8
18/10:00pm 16.7 12.2 6.8 52 4.9 S 20 24 11 13 1016.8 1016.8 0.8
18/09:30pm 17.2 12.7 7.0 51 5.1 SSW 20 26 11 14 1016.4 1016.4 0.8
18/09:00pm 17.5 13.1 7.5 52 5.0 SSW 20 28 11 15 1016.1 1016.1 0.8
18/08:30pm 17.9 12.0 7.3 50 5.3 SSW 28 35 15 19 1015.9 1015.9 0.8
18/08:00pm 18.4 13.3 7.8 50 5.4 SSW 24 32 13 17 1015.5 1015.5 0.8
18/07:30pm 19.3 14.8 8.6 50 5.6 SSW 22 32 12 17 1015.1 1015.1 0.8
18/07:00pm 19.7 14.2 10.4 55 5.0 SW 30 41 16 22 1014.8 1014.8 0.8
18/06:30pm 19.9 14.0 10.3 54 5.2 SW 32 41 17 22 1014.5 1014.5 0.8
18/06:00pm 20.7 14.9 10.8 53 5.4 SSW 32 41 17 22 1013.9 1013.9 0.8
18/05:30pm 21.4 15.3 9.9 48 6.2 SW 32 41 17 22 1013.5 1013.5 0.8
18/05:00pm 22.4 15.9 8.1 40 7.5 SW 32 41 17 22 1013.4 1013.4 0.8
18/04:30pm 23.6 18.1 9.2 40 7.8 SW 28 37 15 20 1013.2 1013.2 0.8
18/04:00pm 22.9 15.6 7.4 37 8.1 SW 35 44 19 24 1013.2 1013.2 0.8
18/03:30pm 23.1 15.0 7.2 36 8.3 SW 39 50 21 27 1013.0 1013.0 0.8
18/03:00pm 23.1 16.0 8.0 38 8.0 WSW 35 46 19 25 1012.7 1012.7 0.8
18/02:30pm 22.4 15.6 7.8 39 7.6 SW 33 50 18 27 1012.7 1012.7 0.8
18/02:00pm 21.7 15.1 9.9 47 6.4 SW 35 48 19 26 1012.8 1012.8 0.8
18/01:30pm 21.2 16.2 12.1 56 5.1 SW 30 43 16 23 1012.7 1012.7 0.8
18/01:00pm 21.5 16.8 12.1 55 5.3 WSW 28 37 15 20 1012.5 1012.5 0.4
18/12:30pm 20.1 15.8 13.3 65 3.9 W 28 35 15 19 1012.6 1012.6 0.4
18/12:00pm 18.9 17.1 14.4 75 2.6 WSW 17 24 9 13 1012.5 1012.5 0.4
18/11:30am 19.2 16.3 14.0 72 3.0 SW 22 32 12 17 1012.3 1012.3 0.0
18/11:00am 21.4 15.7 9.9 48 6.2 WSW 30 43 16 23 1012.0 1012.0 0.0
18/10:30am 20.6 14.6 10.1 51 5.7 W 32 43 17 23 1012.0 1012.0 0.0
18/10:00am 20.8 15.7 10.6 52 5.6 W 28 39 15 21 1011.9 1011.9 0.0
18/09:30am 20.0 15.3 9.3 50 5.7 W 24 35 13 19 1011.6 1011.6 0.0

Other Formats:

Comma delimited format used in spreadsheet applications
http://www.bom.gov.au/fwo/IDS60801/IDS60801.95677.axf

JavaScript Object Notation format (JSON) in row-major order
http://www.bom.gov.au/fwo/IDS60801/IDS60801.95677.json